createdAt,value
2022-11-13T00:02:10.846Z,5.25
2022-11-13T00:04:38.418Z,5.25
2022-11-13T00:07:06.076Z,5.28
2022-11-13T00:09:33.683Z,5.18
2022-11-13T00:12:02.591Z,5.19
2022-11-13T00:14:30.191Z,5.18
2022-11-13T00:16:57.794Z,5.22
2022-11-13T00:19:25.347Z,5.22
2022-11-13T00:21:54.748Z,5.21
2022-11-13T00:24:22.312Z,5.24
2022-11-13T00:26:49.934Z,5.17
2022-11-13T00:29:18.884Z,5.24
2022-11-13T00:31:46.426Z,5.17
2022-11-13T00:34:41.162Z,5.18
2022-11-13T00:37:01.803Z,5.24
2022-11-13T00:39:29.342Z,5.16
2022-11-13T00:41:56.911Z,5.26
2022-11-13T00:44:25.820Z,5.16
2022-11-13T00:46:53.357Z,5.17
2022-11-13T00:49:20.932Z,5.21
2022-11-13T00:51:48.512Z,5.23
2022-11-13T00:54:16.067Z,5.13
2022-11-13T00:56:43.611Z,5.09
2022-11-13T00:59:11.356Z,5.18
2022-11-13T01:01:40.318Z,5.10
2022-11-13T01:04:07.950Z,5.14
2022-11-13T01:06:35.504Z,5.01
2022-11-13T01:09:03.082Z,5.13
2022-11-13T01:11:31.774Z,5.13
2022-11-13T01:13:59.604Z,5.06
2022-11-13T01:16:28.558Z,5.21
2022-11-13T01:18:57.706Z,5.11
2022-11-13T01:21:27.443Z,5.01
2022-11-13T01:23:56.171Z,5.13
2022-11-13T01:26:26.451Z,5.13
2022-11-13T01:28:54.215Z,5.09
2022-11-13T01:31:24.241Z,5.06
2022-11-13T01:33:52.069Z,5.03
2022-11-13T01:36:22.765Z,5.09
2022-11-13T01:38:50.496Z,5.06
2022-11-13T01:41:23.592Z,5.03
2022-11-13T01:43:52.421Z,5.12
2022-11-13T01:46:28.919Z,5.09
2022-11-13T01:49:02.472Z,5.11
2022-11-13T01:51:34.512Z,5.02
2022-11-13T01:54:06.347Z,5.08
2022-11-13T01:56:33.935Z,4.95
2022-11-13T01:59:06.895Z,5.04
2022-11-13T02:01:34.637Z,5.03
2022-11-13T02:04:02.329Z,5.01
2022-11-13T02:06:34.374Z,5.03
2022-11-13T02:09:02.640Z,4.99
2022-11-13T02:11:30.934Z,4.96
2022-11-13T02:13:59.606Z,4.91
2022-11-13T02:16:27.879Z,4.87
2022-11-13T02:18:56.314Z,4.93
2022-11-13T02:21:32.714Z,4.84
2022-11-13T02:24:24.487Z,4.86
2022-11-13T02:26:55.878Z,4.91
2022-11-13T02:29:23.810Z,4.97
2022-11-13T02:31:51.753Z,4.83
2022-11-13T02:34:19.377Z,5.00
2022-11-13T02:36:47.273Z,4.75
2022-11-13T02:39:15.138Z,4.80
2022-11-13T02:41:43.006Z,4.76
2022-11-13T02:44:11.925Z,4.79
2022-11-13T02:46:39.493Z,4.82
2022-11-13T02:49:07.624Z,4.83
2022-11-13T02:51:35.210Z,4.66
2022-11-13T02:54:02.895Z,4.72
2022-11-13T02:56:30.528Z,4.85
2022-11-13T02:58:58.192Z,4.82
2022-11-13T03:01:27.236Z,4.74
2022-11-13T03:03:58.571Z,4.65
2022-11-13T03:06:26.409Z,4.70
2022-11-13T03:08:54.004Z,4.70
2022-11-13T03:11:21.566Z,4.71
2022-11-13T03:13:49.131Z,4.85
2022-11-13T03:16:17.715Z,4.78
2022-11-13T03:18:46.616Z,4.79
2022-11-13T03:21:16.089Z,4.47
2022-11-13T03:23:44.958Z,4.50
2022-11-13T03:26:13.734Z,4.65
2022-11-13T03:28:41.389Z,4.66
2022-11-13T03:31:09.291Z,4.49
2022-11-13T03:33:36.918Z,4.59
2022-11-13T03:36:06.640Z,4.45
2022-11-13T03:38:34.593Z,4.40
2022-11-13T03:41:02.221Z,4.43
2022-11-13T03:43:29.860Z,4.34
2022-11-13T03:45:57.428Z,4.33
2022-11-13T03:48:25.145Z,4.32
2022-11-13T03:50:55.136Z,4.29
2022-11-13T03:53:24.389Z,4.25
2022-11-13T03:55:52.441Z,4.30
2022-11-13T03:58:20.674Z,4.36
2022-11-13T04:00:49.264Z,4.29
2022-11-13T04:03:17.177Z,4.22
2022-11-13T04:05:44.728Z,4.23
2022-11-13T04:08:12.298Z,4.24
2022-11-13T04:10:41.513Z,4.14
2022-11-13T04:13:09.361Z,4.21
2022-11-13T04:15:36.943Z,4.24
2022-11-13T04:18:04.796Z,4.21
2022-11-13T04:20:32.488Z,4.07
2022-11-13T04:23:00.004Z,3.97
2022-11-13T04:25:28.107Z,3.92
2022-11-13T04:27:57.177Z,3.99
2022-11-13T04:30:24.892Z,4.00
2022-11-13T04:32:52.406Z,3.96
2022-11-13T04:35:20.223Z,4.00
2022-11-13T04:37:47.867Z,3.96
2022-11-13T04:40:15.721Z,3.93
2022-11-13T04:42:51.468Z,3.95
2022-11-13T04:45:21.964Z,3.95
2022-11-13T04:47:49.944Z,3.88
2022-11-13T04:50:18.138Z,3.85
2022-11-13T04:52:46.000Z,3.98
2022-11-13T04:55:13.980Z,3.74
2022-11-13T04:57:41.831Z,3.63
2022-11-13T05:00:10.674Z,3.65
2022-11-13T05:02:39.570Z,3.71
2022-11-13T05:05:07.770Z,3.67
2022-11-13T05:07:35.346Z,3.71
2022-11-13T05:10:03.005Z,3.61
2022-11-13T05:12:30.541Z,3.66
2022-11-13T05:14:58.114Z,3.50
2022-11-13T05:17:25.697Z,3.61
2022-11-13T05:19:54.657Z,3.49
2022-11-13T05:22:22.203Z,3.47
2022-11-13T05:24:49.730Z,3.60
2022-11-13T05:27:17.846Z,3.49
2022-11-13T05:29:45.702Z,3.53
2022-11-13T05:32:13.335Z,3.34
2022-11-13T05:34:40.959Z,3.33
2022-11-13T05:37:09.886Z,3.33
2022-11-13T05:39:37.469Z,3.36
2022-11-13T05:42:05.632Z,3.51
2022-11-13T05:44:33.205Z,3.45
2022-11-13T05:47:00.822Z,3.48
2022-11-13T05:49:28.442Z,3.38
2022-11-13T05:51:56.258Z,3.36
2022-11-13T05:54:25.149Z,3.30
2022-11-13T05:56:52.717Z,3.30
2022-11-13T05:59:20.285Z,3.36
2022-11-13T06:01:47.855Z,3.29
2022-11-13T06:04:15.427Z,3.23
2022-11-13T06:06:43.357Z,3.23
2022-11-13T06:09:11.301Z,3.17
2022-11-13T06:11:40.191Z,3.20
2022-11-13T06:14:07.766Z,3.31
2022-11-13T06:16:37.084Z,3.41
2022-11-13T06:19:07.114Z,3.24
2022-11-13T06:21:36.133Z,3.24
2022-11-13T06:24:03.742Z,2.97
2022-11-13T06:26:33.090Z,2.98
2022-11-13T06:29:03.186Z,3.07
2022-11-13T06:31:32.978Z,3.03
2022-11-13T06:34:00.984Z,2.98
2022-11-13T06:36:30.198Z,2.93
2022-11-13T06:38:57.974Z,2.92
2022-11-13T06:41:29.290Z,3.03
2022-11-13T06:44:01.241Z,2.84
2022-11-13T06:46:32.029Z,2.85
2022-11-13T06:49:00.039Z,2.84
2022-11-13T06:51:30.717Z,2.89
2022-11-13T06:53:59.096Z,2.81
2022-11-13T06:56:26.799Z,2.85
2022-11-13T06:58:55.001Z,2.77
2022-11-13T07:01:24.735Z,2.75
2022-11-13T07:03:53.712Z,2.76
2022-11-13T07:06:23.142Z,2.68
2022-11-13T07:08:50.981Z,2.63
2022-11-13T07:11:20.633Z,2.69
2022-11-13T07:13:48.327Z,2.72
2022-11-13T07:16:18.232Z,2.77
2022-11-13T07:18:50.566Z,2.76
2022-11-13T07:21:19.949Z,2.71
2022-11-13T07:23:48.940Z,2.79
2022-11-13T07:26:16.548Z,2.75
2022-11-13T07:28:44.085Z,2.79
2022-11-13T07:31:13.323Z,2.73
2022-11-13T07:33:41.092Z,2.92
2022-11-13T07:36:11.094Z,2.87
2022-11-13T07:38:39.962Z,2.90
2022-11-13T07:41:07.758Z,2.91
2022-11-13T07:43:36.280Z,3.09
2022-11-13T07:46:03.975Z,3.18
2022-11-13T07:48:31.943Z,3.28
2022-11-13T07:51:01.106Z,3.42
2022-11-13T07:53:28.718Z,3.64
2022-11-13T07:55:57.603Z,3.70
2022-11-13T07:58:25.267Z,3.72
2022-11-13T08:00:52.887Z,3.95
2022-11-13T08:03:20.442Z,4.11
2022-11-13T08:05:47.953Z,4.10
2022-11-13T08:08:16.209Z,4.24
2022-11-13T08:10:43.952Z,4.25
2022-11-13T08:13:12.833Z,4.42
2022-11-13T08:15:40.388Z,4.66
2022-11-13T08:18:08.084Z,4.65
2022-11-13T08:20:35.703Z,4.80
2022-11-13T08:23:05.235Z,4.87
2022-11-13T08:25:33.811Z,4.98
2022-11-13T08:28:01.507Z,5.06
2022-11-13T08:30:30.408Z,4.98
2022-11-13T08:32:58.003Z,5.06
2022-11-13T08:35:29.366Z,5.19
2022-11-13T08:38:02.533Z,5.31
2022-11-13T08:40:30.340Z,5.39
2022-11-13T08:42:59.906Z,5.32
2022-11-13T08:45:27.651Z,5.25
2022-11-13T08:48:00.475Z,5.35
2022-11-13T08:50:28.936Z,5.35
2022-11-13T08:52:56.614Z,5.35
2022-11-13T08:55:24.742Z,5.36
2022-11-13T08:57:52.480Z,5.39
2022-11-13T09:00:20.598Z,5.57
2022-11-13T09:02:48.158Z,5.75
2022-11-13T09:05:17.220Z,5.82
2022-11-13T09:07:44.730Z,5.82
2022-11-13T09:10:13.029Z,5.88
2022-11-13T09:12:40.603Z,6.01
2022-11-13T09:15:09.230Z,6.07
2022-11-13T09:17:36.815Z,6.07
2022-11-13T09:20:09.981Z,6.10
2022-11-13T09:22:42.391Z,6.16
2022-11-13T09:25:10.602Z,6.37
2022-11-13T09:27:38.137Z,6.32
2022-11-13T09:30:06.670Z,6.52
2022-11-13T09:32:34.225Z,6.36
2022-11-13T09:35:01.794Z,6.70
2022-11-13T09:37:32.495Z,6.67
2022-11-13T09:40:01.387Z,6.84
2022-11-13T09:42:30.172Z,6.90
2022-11-13T09:45:01.540Z,6.73
2022-11-13T09:47:31.633Z,6.91
2022-11-13T09:50:02.230Z,6.86
2022-11-13T09:52:33.953Z,6.60
2022-11-13T09:55:04.287Z,6.89
2022-11-13T09:57:36.822Z,6.71
2022-11-13T10:00:07.823Z,6.86
2022-11-13T10:02:46.779Z,7.08
2022-11-13T10:05:22.540Z,7.22
2022-11-13T10:07:56.711Z,7.34
2022-11-13T10:10:55.120Z,7.52
2022-11-13T10:13:26.810Z,7.67
2022-11-13T10:16:07.333Z,7.75
2022-11-13T10:18:37.197Z,7.77
2022-11-13T10:21:11.255Z,7.63
2022-11-13T10:23:39.511Z,7.94
2022-11-13T10:26:14.888Z,7.92
2022-11-13T10:28:50.612Z,7.87
2022-11-13T10:31:19.266Z,7.99
2022-11-13T10:33:46.915Z,7.94
2022-11-13T10:36:25.602Z,8.19
2022-11-13T10:38:57.202Z,8.42
2022-11-13T10:41:26.077Z,8.49
2022-11-13T10:44:02.766Z,8.25
2022-11-13T10:46:31.910Z,8.33
2022-11-13T10:48:59.926Z,8.33
2022-11-13T10:51:29.558Z,8.31
2022-11-13T10:53:58.362Z,8.37
2022-11-13T10:56:30.417Z,8.50
2022-11-13T10:59:02.934Z,8.80
2022-11-13T11:01:30.783Z,8.89
2022-11-13T11:03:58.668Z,8.96
2022-11-13T11:07:04.340Z,9.10
2022-11-13T11:09:24.879Z,9.36
2022-11-13T11:12:19.666Z,9.46
2022-11-13T11:15:10.979Z,9.50
2022-11-13T11:17:43.694Z,9.60
2022-11-13T11:20:23.442Z,9.53
2022-11-13T11:22:54.424Z,9.72
2022-11-13T11:25:31.342Z,9.86
2022-11-13T11:28:06.582Z,9.82
2022-11-13T11:30:40.321Z,9.86
2022-11-13T11:33:15.485Z,9.96
2022-11-13T11:35:46.997Z,9.98
2022-11-13T11:38:20.461Z,9.82
2022-11-13T11:40:51.880Z,10.24
2022-11-13T11:43:26.641Z,10.38
2022-11-13T11:45:56.138Z,10.31
2022-11-13T11:48:33.056Z,10.26
2022-11-13T11:51:05.905Z,10.26
2022-11-13T11:53:40.476Z,10.53
2022-11-13T11:56:24.578Z,10.52
2022-11-13T11:59:11.181Z,10.50
2022-11-13T12:01:52.378Z,10.63
2022-11-13T12:04:33.088Z,10.59
2022-11-13T12:07:09.850Z,10.66
2022-11-13T12:09:39.924Z,10.70
2022-11-13T12:12:14.117Z,10.67
2022-11-13T12:14:49.442Z,10.88
2022-11-13T12:17:28.383Z,11.04
2022-11-13T12:20:01.974Z,10.91
2022-11-13T12:22:39.349Z,11.17
2022-11-13T12:25:17.125Z,11.18
2022-11-13T12:27:48.728Z,11.21
2022-11-13T12:30:20.140Z,11.18
2022-11-13T12:33:06.284Z,11.20
2022-11-13T12:35:33.852Z,11.42
2022-11-13T12:38:04.401Z,11.27
2022-11-13T12:40:41.204Z,11.29
2022-11-13T12:43:28.629Z,11.44
2022-11-13T12:45:59.840Z,11.50
2022-11-13T12:48:33.648Z,11.62
2022-11-13T12:51:02.868Z,11.74
2022-11-13T12:53:32.583Z,11.88
2022-11-13T12:56:02.114Z,11.97
2022-11-13T12:58:31.725Z,11.87
2022-11-13T13:01:04.369Z,11.88
2022-11-13T13:03:57.960Z,11.80
2022-11-13T13:06:39.975Z,11.94
2022-11-13T13:09:26.606Z,11.98
2022-11-13T13:12:01.779Z,12.10
2022-11-13T13:15:00.034Z,12.23
2022-11-13T13:17:28.926Z,12.24
2022-11-13T13:20:00.696Z,12.10
2022-11-13T13:22:30.458Z,12.14
2022-11-13T13:25:03.206Z,12.28
2022-11-13T13:27:34.372Z,12.49
2022-11-13T13:30:02.100Z,12.19
2022-11-13T13:32:39.154Z,12.20
2022-11-13T13:35:13.641Z,12.13
2022-11-13T13:37:45.474Z,12.04
2022-11-13T13:40:22.107Z,12.19
2022-11-13T13:43:06.488Z,12.23
2022-11-13T13:45:41.486Z,12.16
2022-11-13T13:48:12.451Z,12.06
2022-11-13T13:50:43.222Z,12.16
2022-11-13T13:53:13.494Z,12.31
2022-11-13T13:55:46.542Z,12.15
2022-11-13T13:58:16.713Z,12.07
2022-11-13T14:01:05.168Z,12.15
2022-11-13T14:03:33.496Z,12.09
2022-11-13T14:06:10.113Z,12.04
2022-11-13T14:08:37.640Z,11.93
2022-11-13T14:11:17.856Z,11.73
2022-11-13T14:13:45.411Z,11.68
2022-11-13T14:16:13.976Z,11.70
2022-11-13T14:18:42.883Z,11.61
2022-11-13T14:21:15.981Z,11.46
2022-11-13T14:23:45.895Z,11.45
2022-11-13T14:26:13.614Z,11.30
2022-11-13T14:28:52.358Z,11.37
2022-11-13T14:31:21.193Z,11.46
2022-11-13T14:33:50.946Z,11.49
2022-11-13T14:36:27.085Z,11.48
2022-11-13T14:38:55.006Z,11.41
2022-11-13T14:41:25.569Z,11.30
2022-11-13T14:43:54.331Z,11.24
2022-11-13T14:46:28.921Z,11.19
2022-11-13T14:48:58.280Z,11.16
2022-11-13T14:51:27.340Z,11.13
2022-11-13T14:53:59.658Z,11.06
2022-11-13T14:56:35.291Z,11.14
2022-11-13T14:59:11.666Z,10.97
2022-11-13T15:01:42.153Z,11.04
2022-11-13T15:04:11.092Z,10.88
2022-11-13T15:06:40.867Z,10.86
2022-11-13T15:09:13.256Z,10.72
2022-11-13T15:11:40.812Z,10.57
2022-11-13T15:14:11.834Z,10.47
2022-11-13T15:16:39.603Z,10.37
2022-11-13T15:19:20.744Z,10.26
2022-11-13T15:22:20.377Z,10.27
2022-11-13T15:24:36.287Z,10.18
2022-11-13T15:27:04.334Z,10.15
2022-11-13T15:29:31.897Z,10.08
2022-11-13T15:31:59.655Z,9.93
2022-11-13T15:34:29.177Z,9.98
2022-11-13T15:36:57.281Z,9.86
2022-11-13T15:39:25.372Z,9.92
2022-11-13T15:41:58.436Z,10.05
2022-11-13T15:44:26.613Z,9.78
2022-11-13T15:46:54.271Z,9.65
2022-11-13T15:49:22.465Z,9.57
2022-11-13T15:51:52.102Z,9.60
2022-11-13T15:54:26.059Z,9.66
2022-11-13T15:56:54.316Z,9.56
2022-11-13T15:59:22.323Z,9.43
2022-11-13T16:01:53.992Z,9.32
2022-11-13T16:04:26.694Z,9.25
2022-11-13T16:07:13.065Z,9.28
2022-11-13T16:09:40.644Z,9.27
2022-11-13T16:12:10.514Z,9.33
2022-11-13T16:14:38.679Z,9.24
2022-11-13T16:17:07.454Z,9.19
2022-11-13T16:19:35.007Z,9.17
2022-11-13T16:22:02.674Z,9.13
2022-11-13T16:24:31.703Z,9.28
2022-11-13T16:27:00.881Z,9.26
2022-11-13T16:29:30.491Z,9.14
2022-11-13T16:31:58.077Z,9.09
2022-11-13T16:34:25.727Z,9.02
2022-11-13T16:36:53.295Z,8.92
2022-11-13T16:39:20.934Z,8.82
2022-11-13T16:41:50.010Z,8.72
2022-11-13T16:44:17.674Z,8.68
2022-11-13T16:46:47.787Z,8.62
2022-11-13T16:49:18.968Z,8.61
2022-11-13T16:51:46.987Z,8.55
2022-11-13T16:54:14.954Z,8.40
2022-11-13T16:56:42.655Z,8.50
2022-11-13T16:59:12.544Z,8.39
2022-11-13T17:01:40.575Z,8.39
2022-11-13T17:04:08.279Z,8.39
2022-11-13T17:06:37.137Z,8.36
2022-11-13T17:09:05.432Z,8.23
2022-11-13T17:11:33.677Z,8.16
2022-11-13T17:14:02.440Z,8.08
2022-11-13T17:16:32.407Z,8.07
2022-11-13T17:19:00.749Z,8.13
2022-11-13T17:21:29.948Z,8.09
2022-11-13T17:23:58.106Z,8.12
2022-11-13T17:26:26.476Z,8.06
2022-11-13T17:28:54.442Z,8.13
2022-11-13T17:31:22.804Z,8.29
2022-11-13T17:33:53.175Z,8.18
2022-11-13T17:36:21.027Z,8.08
2022-11-13T17:38:48.666Z,8.01
2022-11-13T17:41:17.408Z,7.98
2022-11-13T17:43:45.378Z,7.99
2022-11-13T17:46:14.266Z,7.97
2022-11-13T17:48:42.602Z,7.97
2022-11-13T17:51:13.925Z,7.95
2022-11-13T17:53:41.908Z,7.94
2022-11-13T17:56:11.612Z,7.94
2022-11-13T17:58:40.724Z,7.92
2022-11-13T18:01:10.230Z,7.95
2022-11-13T18:03:38.016Z,7.93
2022-11-13T18:06:07.470Z,7.87
2022-11-13T18:08:38.829Z,7.84
2022-11-13T18:11:11.157Z,7.80
2022-11-13T18:13:39.303Z,7.75
2022-11-13T18:16:08.268Z,7.86
2022-11-13T18:18:36.233Z,7.86
2022-11-13T18:21:22.351Z,7.81
2022-11-13T18:23:57.634Z,7.81
2022-11-13T18:26:25.650Z,7.83
2022-11-13T18:28:53.303Z,7.93
2022-11-13T18:31:21.895Z,7.83
2022-11-13T18:33:49.596Z,7.83
2022-11-13T18:36:17.342Z,7.78
2022-11-13T18:38:45.129Z,7.75
2022-11-13T18:41:15.499Z,7.73
2022-11-13T18:43:44.252Z,7.70
2022-11-13T18:46:12.819Z,7.68
2022-11-13T18:48:41.915Z,7.71
2022-11-13T18:51:13.475Z,7.71
2022-11-13T18:53:41.385Z,7.76
2022-11-13T18:56:12.956Z,7.73
2022-11-13T18:58:43.360Z,7.84
2022-11-13T19:01:14.124Z,7.91
2022-11-13T19:04:08.172Z,7.82
2022-11-13T19:06:32.041Z,7.82
2022-11-13T19:09:00.816Z,7.83
2022-11-13T19:11:29.826Z,7.83
2022-11-13T19:13:58.972Z,7.82
2022-11-13T19:16:28.228Z,7.82
2022-11-13T19:18:57.549Z,7.80
2022-11-13T19:21:27.433Z,7.76
2022-11-13T19:23:55.340Z,7.75
2022-11-13T19:26:22.982Z,7.75
2022-11-13T19:28:51.717Z,7.76
2022-11-13T19:31:21.989Z,7.78
2022-11-13T19:33:55.066Z,7.74
2022-11-13T19:36:24.747Z,7.67
2022-11-13T19:38:53.293Z,7.69
2022-11-13T19:41:21.328Z,7.62
2022-11-13T19:43:49.000Z,7.67
2022-11-13T19:46:18.367Z,7.66
2022-11-13T19:48:48.804Z,7.62
2022-11-13T19:51:18.544Z,7.65
2022-11-13T19:53:47.082Z,7.61
2022-11-13T19:56:15.643Z,7.62
2022-11-13T19:58:44.466Z,7.65
2022-11-13T20:01:13.098Z,7.62
2022-11-13T20:03:41.247Z,7.65
2022-11-13T20:06:11.527Z,7.58
2022-11-13T20:08:39.388Z,7.55
2022-11-13T20:11:10.088Z,7.61
2022-11-13T20:13:38.725Z,7.48
2022-11-13T20:16:08.971Z,7.50
2022-11-13T20:18:37.012Z,7.51
2022-11-13T20:21:05.676Z,7.41
2022-11-13T20:23:35.288Z,7.50
2022-11-13T20:26:04.653Z,7.51
2022-11-13T20:28:32.638Z,7.38
2022-11-13T20:31:04.267Z,7.30
2022-11-13T20:33:32.977Z,7.27
2022-11-13T20:36:00.637Z,7.26
2022-11-13T20:38:29.360Z,7.20
2022-11-13T20:40:58.513Z,7.14
2022-11-13T20:43:26.118Z,7.06
2022-11-13T20:46:02.292Z,7.01
2022-11-13T20:48:30.705Z,7.01
2022-11-13T20:50:58.520Z,7.10
2022-11-13T20:53:26.114Z,7.06
2022-11-13T20:55:53.744Z,6.97
2022-11-13T20:58:22.784Z,6.91
2022-11-13T21:00:50.472Z,6.97
2022-11-13T21:03:18.148Z,6.93
2022-11-13T21:05:45.771Z,6.89
2022-11-13T21:08:13.568Z,6.80
2022-11-13T21:10:41.877Z,6.83
2022-11-13T21:13:09.421Z,6.80
2022-11-13T21:15:39.728Z,6.82
2022-11-13T21:18:07.580Z,6.80
2022-11-13T21:20:35.802Z,6.74
2022-11-13T21:23:03.388Z,6.71
2022-11-13T21:25:31.688Z,6.68
2022-11-13T21:27:59.316Z,6.66
2022-11-13T21:30:27.031Z,6.64
2022-11-13T21:32:56.002Z,6.67
2022-11-13T21:35:23.718Z,6.63
2022-11-13T21:37:51.352Z,6.83
2022-11-13T21:40:19.059Z,6.82
2022-11-13T21:42:47.273Z,6.71
2022-11-13T21:45:15.097Z,6.69
2022-11-13T21:47:43.314Z,6.65
2022-11-13T21:50:12.766Z,6.57
2022-11-13T21:52:40.440Z,6.58
2022-11-13T21:55:10.012Z,6.56
2022-11-13T21:57:37.602Z,6.50
2022-11-13T22:00:06.106Z,6.48
2022-11-13T22:02:33.925Z,6.42
2022-11-13T22:05:01.543Z,6.43
2022-11-13T22:07:30.705Z,6.60
2022-11-13T22:09:58.304Z,6.43
2022-11-13T22:12:25.926Z,6.35
2022-11-13T22:14:53.485Z,6.33
2022-11-13T22:17:21.094Z,6.29
2022-11-13T22:19:48.819Z,6.27
2022-11-13T22:22:16.570Z,6.24
2022-11-13T22:24:45.516Z,6.19
2022-11-13T22:27:13.262Z,6.21
2022-11-13T22:29:40.893Z,6.24
2022-11-13T22:32:08.496Z,6.16
2022-11-13T22:34:36.164Z,6.11
2022-11-13T22:37:03.731Z,6.18
2022-11-13T22:39:31.964Z,6.08
2022-11-13T22:42:00.966Z,6.17
2022-11-13T22:44:45.467Z,6.17
2022-11-13T22:47:16.102Z,6.11
2022-11-13T22:49:43.806Z,6.03
2022-11-13T22:52:11.542Z,6.02
2022-11-13T22:54:39.235Z,5.98
2022-11-13T22:57:08.165Z,5.94
2022-11-13T22:59:35.804Z,5.90
2022-11-13T23:02:03.458Z,5.89
2022-11-13T23:04:31.024Z,5.88
2022-11-13T23:06:58.654Z,5.93
2022-11-13T23:09:27.093Z,5.88
2022-11-13T23:11:54.714Z,5.82
2022-11-13T23:14:23.943Z,5.81
2022-11-13T23:16:51.494Z,5.77
2022-11-13T23:19:19.133Z,5.73
2022-11-13T23:21:47.025Z,5.75
2022-11-13T23:24:14.763Z,5.73
2022-11-13T23:26:42.528Z,5.63
2022-11-13T23:29:11.125Z,5.51
2022-11-13T23:31:40.336Z,5.46
2022-11-13T23:34:08.105Z,5.45
2022-11-13T23:36:35.899Z,5.45
2022-11-13T23:39:03.710Z,5.42
2022-11-13T23:41:31.294Z,5.45
2022-11-13T23:44:14.083Z,5.38
2022-11-13T23:46:43.093Z,5.33
2022-11-13T23:49:10.793Z,5.38
2022-11-13T23:51:38.596Z,5.43
2022-11-13T23:54:06.258Z,5.30
2022-11-13T23:56:33.832Z,5.26
2022-11-13T23:59:01.507Z,5.23
